createdAt,value
2023-06-28T00:00:04.449Z,100402.78
2023-06-28T00:03:11.202Z,100403.78
2023-06-28T00:06:14.038Z,100408.41
2023-06-28T00:09:16.742Z,100400.03
2023-06-28T00:12:22.364Z,100407.53
2023-06-28T00:15:25.120Z,100406.53
2023-06-28T00:18:31.474Z,100403.03
2023-06-28T00:21:34.508Z,100408.91
2023-06-28T00:24:37.240Z,100403.81
2023-06-28T00:27:41.549Z,100412.56
2023-06-28T00:30:44.480Z,100407.31
2023-06-28T00:33:47.774Z,100413.06
2023-06-28T00:36:51.537Z,100409.59
2023-06-28T00:39:55.972Z,100411.72
2023-06-28T00:43:00.040Z,100421.25
2023-06-28T00:46:03.390Z,100417.88
2023-06-28T00:49:13.878Z,100412.88
2023-06-28T00:52:16.584Z,100414.78
2023-06-28T00:55:22.199Z,100425.88
2023-06-28T00:58:26.756Z,100428.41
2023-06-28T01:01:30.032Z,100427.16
2023-06-28T01:04:41.604Z,100429.78
2023-06-28T01:07:46.017Z,100434.88
2023-06-28T01:10:50.429Z,100432.88
2023-06-28T01:13:54.742Z,100438.09
2023-06-28T01:16:57.550Z,100437.13
2023-06-28T01:20:01.066Z,100438.59
2023-06-28T01:23:06.514Z,100436.59
2023-06-28T01:26:10.313Z,100429.19
2023-06-28T01:29:13.275Z,100450.03
2023-06-28T01:32:18.311Z,100439.28
2023-06-28T01:35:21.036Z,100448.53
2023-06-28T01:38:27.154Z,100445.88
2023-06-28T01:41:30.287Z,100446.03
2023-06-28T01:44:34.660Z,100445.00
2023-06-28T01:47:37.741Z,100440.53
2023-06-28T01:50:40.995Z,100441.53
2023-06-28T01:53:45.302Z,100445.28
2023-06-28T01:56:48.099Z,100444.28
2023-06-28T01:59:50.842Z,100443.28
2023-06-28T02:02:54.761Z,100450.50
2023-06-28T02:05:57.824Z,100451.25
2023-06-28T02:09:02.152Z,100450.03
2023-06-28T02:12:05.352Z,100438.19
2023-06-28T02:15:09.322Z,100437.31
2023-06-28T02:18:12.001Z,100442.81
2023-06-28T02:21:15.457Z,100442.53
2023-06-28T02:24:21.311Z,100444.56
2023-06-28T02:27:24.026Z,100441.94
2023-06-28T02:30:26.842Z,100442.91
2023-06-28T02:33:29.562Z,100443.03
2023-06-28T02:36:32.814Z,100453.03
2023-06-28T02:39:36.891Z,100447.75
2023-06-28T02:42:39.608Z,100455.25
2023-06-28T02:45:42.304Z,100451.75
2023-06-28T02:48:45.044Z,100452.75
2023-06-28T02:51:47.742Z,100457.47
2023-06-28T02:54:51.799Z,100461.97
2023-06-28T02:57:55.503Z,100454.50
2023-06-28T03:00:58.646Z,100457.34
2023-06-28T03:04:01.669Z,100455.50
2023-06-28T03:07:04.819Z,100455.59
2023-06-28T03:10:10.067Z,100459.34
2023-06-28T03:13:12.811Z,100458.34
2023-06-28T03:16:16.784Z,100467.47
2023-06-28T03:19:19.493Z,100459.22
2023-06-28T03:22:28.379Z,100465.72
2023-06-28T03:25:32.632Z,100467.56
2023-06-28T03:28:35.533Z,100459.00
2023-06-28T03:31:38.303Z,100461.22
2023-06-28T03:34:41.035Z,100460.94
2023-06-28T03:37:50.975Z,100461.81
2023-06-28T03:40:57.591Z,100463.56
2023-06-28T03:44:00.276Z,100462.69
2023-06-28T03:47:07.623Z,100462.69
2023-06-28T03:50:11.058Z,100460.72
2023-06-28T03:53:13.753Z,100468.06
2023-06-28T03:56:17.962Z,100463.56
2023-06-28T03:59:21.632Z,100468.81
2023-06-28T04:02:24.331Z,100465.97
2023-06-28T04:05:27.274Z,100472.19
2023-06-28T04:08:29.990Z,100463.97
2023-06-28T04:11:33.977Z,100464.84
2023-06-28T04:14:36.924Z,100469.22
2023-06-28T04:17:39.697Z,100466.25
2023-06-28T04:20:43.350Z,100463.50
2023-06-28T04:23:46.547Z,100472.25
2023-06-28T04:26:50.586Z,100468.38
2023-06-28T04:29:53.297Z,100479.00
2023-06-28T04:32:55.972Z,100435.50
2023-06-28T04:36:02.786Z,100467.53
2023-06-28T04:39:05.524Z,100480.03
2023-06-28T04:42:09.667Z,100472.28
2023-06-28T04:45:12.674Z,100471.56
2023-06-28T04:48:15.382Z,100477.59
2023-06-28T04:51:18.672Z,100475.69
2023-06-28T04:54:21.372Z,100474.94
2023-06-28T04:57:25.685Z,100480.34
2023-06-28T05:00:28.645Z,100472.22
2023-06-28T05:03:33.584Z,100472.09
2023-06-28T05:06:37.208Z,100473.69
2023-06-28T05:09:40.677Z,100481.44
2023-06-28T05:12:44.711Z,100482.31
2023-06-28T05:15:47.985Z,100481.31
2023-06-28T05:18:50.724Z,100477.69
2023-06-28T05:21:55.158Z,100485.06
2023-06-28T05:24:57.955Z,100484.56
2023-06-28T05:28:01.996Z,100480.06
2023-06-28T05:31:04.769Z,100480.84
2023-06-28T05:34:07.559Z,100472.13
2023-06-28T05:37:10.266Z,100475.75
2023-06-28T05:40:14.106Z,100469.16
2023-06-28T05:43:18.122Z,100469.41
2023-06-28T05:46:20.876Z,100474.50
2023-06-28T05:49:26.461Z,100466.97
2023-06-28T05:52:29.187Z,100471.88
2023-06-28T05:55:32.067Z,100458.06
2023-06-28T05:58:36.515Z,100469.06
2023-06-28T06:01:39.274Z,100470.06
2023-06-28T06:04:41.998Z,100467.81
2023-06-28T06:07:44.742Z,100469.56
2023-06-28T06:10:47.475Z,100469.03
2023-06-28T06:13:51.569Z,100466.03
2023-06-28T06:16:55.557Z,100474.28
2023-06-28T06:19:58.295Z,100467.03
2023-06-28T06:23:01.044Z,100478.16
2023-06-28T06:26:03.864Z,100482.09
2023-06-28T06:29:08.263Z,100475.06
2023-06-28T06:32:11.754Z,100486.97
2023-06-28T06:35:15.762Z,100487.16
2023-06-28T06:38:18.516Z,100481.59
2023-06-28T06:41:25.047Z,100489.34
2023-06-28T06:44:32.265Z,100493.84
2023-06-28T06:47:36.831Z,100489.97
2023-06-28T06:50:39.779Z,100489.56
2023-06-28T06:53:42.724Z,100494.56
2023-06-28T06:56:45.405Z,100491.56
2023-06-28T06:59:49.431Z,100486.06
2023-06-28T07:02:52.301Z,100490.00
2023-06-28T07:05:55.036Z,100481.88
2023-06-28T07:08:59.008Z,100479.00
2023-06-28T07:12:01.750Z,100477.63
2023-06-28T07:15:06.969Z,100482.97
2023-06-28T07:18:09.665Z,100477.63
2023-06-28T07:21:15.912Z,100474.53
2023-06-28T07:24:18.595Z,100477.78
2023-06-28T07:27:24.302Z,100475.19
2023-06-28T07:30:32.098Z,100486.72
2023-06-28T07:33:35.431Z,100490.97
2023-06-28T07:36:38.188Z,100485.31
2023-06-28T07:39:40.966Z,100482.22
2023-06-28T07:42:43.843Z,100483.22
2023-06-28T07:45:48.331Z,100487.75
2023-06-28T07:48:51.907Z,100476.94
2023-06-28T07:51:54.670Z,100474.16
2023-06-28T07:54:57.351Z,100466.00
2023-06-28T07:58:00.217Z,100451.56
2023-06-28T08:01:08.227Z,100450.00
2023-06-28T08:04:13.367Z,100440.19
2023-06-28T08:07:16.704Z,100429.78
2023-06-28T08:10:19.458Z,100432.91
2023-06-28T08:13:24.903Z,100427.22
2023-06-28T08:16:29.093Z,100423.91
2023-06-28T08:19:31.834Z,100423.03
2023-06-28T08:22:35.282Z,100421.72
2023-06-28T08:25:38.134Z,100420.09
2023-06-28T08:28:54.469Z,100429.44
2023-06-28T08:32:03.269Z,100426.59
2023-06-28T08:35:09.538Z,100423.16
2023-06-28T08:38:12.760Z,100415.78
2023-06-28T08:41:18.484Z,100415.41
2023-06-28T08:44:24.862Z,100418.44
2023-06-28T08:47:31.878Z,100419.28
2023-06-28T08:50:35.190Z,100421.94
2023-06-28T08:53:45.152Z,100421.78
2023-06-28T08:57:05.123Z,100419.56
2023-06-28T09:00:14.789Z,100418.94
2023-06-28T09:03:20.090Z,100420.81
2023-06-28T09:06:23.779Z,100404.59
2023-06-28T09:09:29.710Z,100413.16
2023-06-28T09:12:33.348Z,100383.63
2023-06-28T09:15:39.117Z,100405.53
2023-06-28T09:18:43.291Z,100403.84
2023-06-28T09:21:46.852Z,100406.47
2023-06-28T09:24:51.191Z,100396.31
2023-06-28T09:27:54.867Z,100407.34
2023-06-28T09:30:58.597Z,100397.16
2023-06-28T09:34:05.146Z,100396.34
2023-06-28T09:37:08.181Z,100398.16
2023-06-28T09:40:17.008Z,100401.44
2023-06-28T09:43:19.721Z,100398.16
2023-06-28T09:46:23.446Z,100395.91
2023-06-28T09:49:28.028Z,100393.16
2023-06-28T09:52:37.242Z,100386.78
2023-06-28T09:55:41.582Z,100391.44
2023-06-28T09:58:47.331Z,100382.41
2023-06-28T10:01:53.968Z,100381.66
2023-06-28T10:04:58.717Z,100388.94
2023-06-28T10:08:13.503Z,100390.69
2023-06-28T10:11:17.803Z,100372.53
2023-06-28T10:14:22.658Z,100385.13
2023-06-28T10:17:26.299Z,100379.97
2023-06-28T10:20:31.137Z,100383.63
2023-06-28T10:23:36.732Z,100382.06
2023-06-28T10:26:39.879Z,100380.78
2023-06-28T10:29:45.239Z,100379.13
2023-06-28T10:32:48.371Z,100375.16
2023-06-28T10:35:54.030Z,100373.56
2023-06-28T10:38:56.727Z,100371.66
2023-06-28T10:42:00.274Z,100379.16
2023-06-28T10:45:04.364Z,100372.53
2023-06-28T10:48:09.800Z,100366.97
2023-06-28T10:51:21.814Z,100372.81
2023-06-28T10:54:24.774Z,100379.97
2023-06-28T10:57:38.801Z,100370.38
2023-06-28T11:00:46.855Z,100361.78
2023-06-28T11:03:49.626Z,100370.38
2023-06-28T11:07:12.060Z,100368.09
2023-06-28T11:10:18.441Z,100366.06
2023-06-28T11:13:33.898Z,100368.97
2023-06-28T11:16:37.818Z,100364.97
2023-06-28T11:19:42.001Z,100356.94
2023-06-28T11:22:53.341Z,100354.06
2023-06-28T11:25:57.863Z,100360.81
2023-06-28T11:29:00.665Z,100362.69
2023-06-28T11:32:04.116Z,100354.50
2023-06-28T11:35:10.180Z,100353.25
2023-06-28T11:38:16.717Z,100358.81
2023-06-28T11:41:19.637Z,100358.78
2023-06-28T11:44:22.307Z,100363.28
2023-06-28T11:47:28.471Z,100367.09
2023-06-28T11:50:31.874Z,100370.94
2023-06-28T11:53:35.975Z,100373.03
2023-06-28T11:56:40.379Z,100364.19
2023-06-28T11:59:51.921Z,100366.94
2023-06-28T12:02:54.728Z,100364.88
2023-06-28T12:05:58.045Z,100369.91
2023-06-28T12:09:02.186Z,100369.28
2023-06-28T12:12:06.857Z,100361.97
2023-06-28T12:15:14.789Z,100355.50
2023-06-28T12:18:20.666Z,100348.19
2023-06-28T12:21:23.714Z,100352.75
2023-06-28T12:24:28.060Z,100351.63
2023-06-28T12:27:32.566Z,100350.16
2023-06-28T12:30:35.379Z,100347.50
2023-06-28T12:33:38.228Z,100339.94
2023-06-28T12:36:43.723Z,100347.25
2023-06-28T12:39:48.437Z,100344.00
2023-06-28T12:43:21.451Z,100338.72
2023-06-28T12:46:24.182Z,100335.56
2023-06-28T12:49:41.202Z,100334.94
2023-06-28T12:52:43.984Z,100341.88
2023-06-28T12:55:50.404Z,100332.50
2023-06-28T12:58:53.082Z,100331.63
2023-06-28T13:01:55.884Z,100322.44
2023-06-28T13:04:58.688Z,100322.56
2023-06-28T13:08:04.463Z,100308.63
2023-06-28T13:11:16.339Z,100315.84
2023-06-28T13:14:21.186Z,100313.25
2023-06-28T13:17:24.198Z,100316.78
2023-06-28T13:20:28.943Z,100321.59
2023-06-28T13:23:33.925Z,100334.56
2023-06-28T13:26:37.998Z,100330.09
2023-06-28T13:29:40.648Z,100323.00
2023-06-28T13:32:46.618Z,100288.63
2023-06-28T13:35:49.441Z,100329.63
2023-06-28T13:38:52.309Z,100310.19
2023-06-28T13:41:56.488Z,100314.00
2023-06-28T13:44:59.269Z,100319.88
2023-06-28T13:48:02.331Z,100306.69
2023-06-28T13:51:05.391Z,100303.94
2023-06-28T13:54:08.140Z,100304.72
2023-06-28T13:57:15.373Z,100296.59
2023-06-28T14:00:18.504Z,100280.72
2023-06-28T14:03:21.304Z,100287.38
2023-06-28T14:06:24.158Z,100292.88
2023-06-28T14:09:27.542Z,100297.38
2023-06-28T14:12:31.773Z,100293.75
2023-06-28T14:15:34.631Z,100298.50
2023-06-28T14:18:37.355Z,100304.25
2023-06-28T14:21:40.031Z,100297.84
2023-06-28T14:24:42.756Z,100297.69
2023-06-28T14:27:47.127Z,100281.16
2023-06-28T14:30:49.795Z,100292.25
2023-06-28T14:33:52.548Z,100291.34
2023-06-28T14:36:55.247Z,100276.16
2023-06-28T14:39:58.007Z,100273.03
2023-06-28T14:43:02.019Z,100269.75
2023-06-28T14:46:04.785Z,100272.59
2023-06-28T14:49:08.347Z,100264.59
2023-06-28T14:52:11.110Z,100261.50
2023-06-28T14:55:13.822Z,100263.97
2023-06-28T14:58:18.134Z,100263.44
2023-06-28T15:01:21.405Z,100266.06
2023-06-28T15:04:24.162Z,100275.97
2023-06-28T15:07:27.201Z,100270.56
2023-06-28T15:10:29.985Z,100262.19
2023-06-28T15:13:34.025Z,100267.69
2023-06-28T15:16:37.469Z,100265.94
2023-06-28T15:19:40.362Z,100271.13
2023-06-28T15:22:43.031Z,100264.88
2023-06-28T15:25:45.995Z,100260.34
2023-06-28T15:28:50.164Z,100265.22
2023-06-28T15:31:52.854Z,100259.72
2023-06-28T15:34:55.565Z,100264.25
2023-06-28T15:37:58.656Z,100266.31
2023-06-28T15:41:02.317Z,100267.19
2023-06-28T15:44:06.534Z,100265.28
2023-06-28T15:47:09.791Z,100258.50
2023-06-28T15:50:12.789Z,100255.56
2023-06-28T15:53:15.486Z,100259.91
2023-06-28T15:56:18.130Z,100262.50
2023-06-28T15:59:22.426Z,100252.16
2023-06-28T16:02:25.302Z,100254.94
2023-06-28T16:05:28.307Z,100250.97
2023-06-28T16:08:31.231Z,100251.13
2023-06-28T16:11:34.923Z,100241.22
2023-06-28T16:14:39.501Z,100250.28
2023-06-28T16:17:43.790Z,100255.28
2023-06-28T16:20:46.673Z,100253.75
2023-06-28T16:23:49.462Z,100248.66
2023-06-28T16:26:52.558Z,100211.22
2023-06-28T16:29:57.456Z,100232.72
2023-06-28T16:33:00.366Z,100231.16
2023-06-28T16:36:04.364Z,100236.22
2023-06-28T16:39:07.153Z,100232.56
2023-06-28T16:42:10.342Z,100228.53
2023-06-28T16:45:14.603Z,100232.72
2023-06-28T16:48:17.646Z,100220.56
2023-06-28T16:51:21.117Z,100232.00
2023-06-28T16:54:25.864Z,100228.03
2023-06-28T16:57:28.895Z,100234.28
2023-06-28T17:00:33.239Z,100235.16
2023-06-28T17:03:40.306Z,100234.47
2023-06-28T17:06:43.051Z,100227.66
2023-06-28T17:09:46.088Z,100235.34
2023-06-28T17:12:48.981Z,100243.13
2023-06-28T17:15:53.619Z,100230.28
2023-06-28T17:18:56.535Z,100237.53
2023-06-28T17:21:59.252Z,100246.22
2023-06-28T17:25:02.086Z,100244.25
2023-06-28T17:28:05.267Z,100247.72
2023-06-28T17:31:09.366Z,100247.22
2023-06-28T17:34:12.056Z,100246.47
2023-06-28T17:37:14.816Z,100250.59
2023-06-28T17:40:17.530Z,100248.13
2023-06-28T17:43:20.446Z,100249.84
2023-06-28T17:46:24.480Z,100255.16
2023-06-28T17:49:27.208Z,100260.88
2023-06-28T17:52:29.858Z,100253.53
2023-06-28T17:55:34.761Z,100255.75
2023-06-28T17:58:38.552Z,100250.22
2023-06-28T18:01:42.709Z,100265.06
2023-06-28T18:04:45.449Z,100267.09
2023-06-28T18:07:50.284Z,100271.06
2023-06-28T18:10:54.434Z,100256.75
2023-06-28T18:13:57.111Z,100268.81
2023-06-28T18:17:02.028Z,100269.13
2023-06-28T18:20:05.639Z,100268.34
2023-06-28T18:23:08.343Z,100259.59
2023-06-28T18:26:11.023Z,100265.44
2023-06-28T18:29:13.702Z,100276.78
2023-06-28T18:32:17.734Z,100273.59
2023-06-28T18:35:20.438Z,100281.03
2023-06-28T18:38:25.562Z,100282.56
2023-06-28T18:41:30.865Z,100273.56
2023-06-28T18:44:44.279Z,100283.53
2023-06-28T18:47:48.610Z,100284.47
2023-06-28T18:50:54.542Z,100289.72
2023-06-28T18:53:57.754Z,100290.19
2023-06-28T18:57:00.460Z,100285.44
2023-06-28T19:00:06.643Z,100282.03
2023-06-28T19:03:13.126Z,100297.53
2023-06-28T19:06:15.952Z,100295.22
2023-06-28T19:09:18.649Z,100288.47
2023-06-28T19:12:21.351Z,100300.69
2023-06-28T19:15:24.730Z,100302.00
2023-06-28T19:18:29.260Z,100277.31
2023-06-28T19:21:32.241Z,100323.81
2023-06-28T19:24:34.986Z,100319.44
2023-06-28T19:27:37.720Z,100319.75
2023-06-28T19:30:40.630Z,100321.03
2023-06-28T19:33:44.848Z,100315.97
2023-06-28T19:41:04.726Z,100325.47
2023-06-28T19:44:07.567Z,100324.03
2023-06-28T19:47:10.267Z,100325.63
2023-06-28T19:50:14.353Z,100335.31
2023-06-28T19:53:17.024Z,100335.00
2023-06-28T19:56:20.954Z,100339.09
2023-06-28T19:59:23.709Z,100343.13
2023-06-28T20:02:26.508Z,100340.19
2023-06-28T20:05:30.653Z,100344.50
2023-06-28T20:08:33.889Z,100344.47
2023-06-28T20:11:36.713Z,100351.69
2023-06-28T20:14:39.552Z,100357.00
2023-06-28T20:17:42.288Z,100353.78
2023-06-28T20:20:47.007Z,100356.22
2023-06-28T20:23:50.023Z,100355.91
2023-06-28T20:26:53.872Z,100363.81
2023-06-28T20:29:57.074Z,100358.97
2023-06-28T20:32:59.790Z,100358.66
2023-06-28T20:36:04.390Z,100360.06
2023-06-28T20:39:07.093Z,100352.59
2023-06-28T20:42:10.108Z,100357.66
2023-06-28T20:45:12.826Z,100362.78
2023-06-28T20:48:15.640Z,100351.44
2023-06-28T20:51:21.092Z,100325.44
2023-06-28T20:54:23.878Z,100360.88
2023-06-28T20:57:26.952Z,100366.03
2023-06-28T21:00:29.765Z,100361.31
2023-06-28T21:03:32.614Z,100368.34
2023-06-28T21:06:36.701Z,100376.09
2023-06-28T21:09:43.927Z,100377.91
2023-06-28T21:12:46.726Z,100369.41
2023-06-28T21:15:49.682Z,100371.94
2023-06-28T21:18:52.861Z,100369.44
2023-06-28T21:21:56.978Z,100365.44
2023-06-28T21:25:00.376Z,100380.19
2023-06-28T21:28:03.928Z,100376.19
2023-06-28T21:31:06.751Z,100380.31
2023-06-28T21:34:09.517Z,100379.66
2023-06-28T21:37:13.869Z,100382.94
2023-06-28T21:40:16.692Z,100384.16
2023-06-28T21:43:19.825Z,100384.03
2023-06-28T21:46:22.606Z,100384.53
2023-06-28T21:49:25.465Z,100392.41
2023-06-28T21:52:29.533Z,100392.03
2023-06-28T21:55:32.194Z,100390.63
2023-06-28T21:58:37.689Z,100389.13
2023-06-28T22:01:40.612Z,100396.88
2023-06-28T22:04:43.434Z,100398.22
2023-06-28T22:07:50.129Z,100392.34
2023-06-28T22:10:55.650Z,100401.09
2023-06-28T22:14:04.945Z,100391.31
2023-06-28T22:17:07.729Z,100399.81
2023-06-28T22:20:12.111Z,100401.03
2023-06-28T22:23:17.458Z,100400.50
2023-06-28T22:26:22.173Z,100403.72
2023-06-28T22:29:24.913Z,100404.84
2023-06-28T22:32:27.684Z,100398.69
2023-06-28T22:35:30.399Z,100391.59
2023-06-28T22:38:47.748Z,100397.44
2023-06-28T22:41:54.403Z,100395.94
2023-06-28T22:44:58.038Z,100394.41
2023-06-28T22:48:03.444Z,100392.91
2023-06-28T22:51:06.979Z,100385.25
2023-06-28T22:54:15.276Z,100388.47
2023-06-28T22:57:18.017Z,100393.19
2023-06-28T23:00:20.897Z,100388.16
2023-06-28T23:03:25.354Z,100381.06
2023-06-28T23:06:28.320Z,100385.13
2023-06-28T23:09:32.363Z,100387.25
2023-06-28T23:12:38.340Z,100381.22
2023-06-28T23:15:41.242Z,100383.44
2023-06-28T23:18:48.283Z,100385.66
2023-06-28T23:21:50.944Z,100381.50
2023-06-28T23:24:55.550Z,100370.09
2023-06-28T23:27:58.762Z,100379.66
2023-06-28T23:31:02.156Z,100379.09
2023-06-28T23:34:05.037Z,100375.72
2023-06-28T23:37:08.415Z,100383.28
2023-06-28T23:40:14.154Z,100380.03
2023-06-28T23:43:17.269Z,100371.03
2023-06-28T23:46:19.909Z,100379.59
2023-06-28T23:49:24.095Z,100380.81
2023-06-28T23:52:30.245Z,100384.00
2023-06-28T23:55:35.194Z,100379.59
2023-06-28T23:58:38.806Z,100392.56
